64513 station(s) have been heard in the last 24 hours.

<< 880 881 882 883 884 885 886 >>
  Name/Id Latest heard Comment/Other Map
Symbol W5CGP 1778169273 `224.920Mhz_2 Map
Symbol SQ9KWX-7 1778169273 `145.487.5MHz Map
Symbol BA7KVA-8 1778169273 E1[] Map
Symbol N0SZ-2 1778169273 Map
Symbol DG2HAM-9 1778169273 **LowVoltagePowerOff** Map
Symbol EA7KEL-9 1778169273 '73 Map
Symbol DH5NT-10 1778169273 LoRa APRS Map
Symbol VE7EMG-R 1778169273 444.375MHz C88 +500 Map
Symbol W0FX 1778169273 Jamestown ARC Map
Symbol JE4YJJ-2 1778169273 PHG53802/Mt.Ryuoo Maniwa City Digi 9k6 Map
Symbol EA7EQC-10 1778169272 APRS Montilla Map
Symbol VA3IGN 1778169272 147.18MHz, T123.0, +0.6MHz (IRLP node 2414) Map
Symbol JE4YKJ-10 1778169272 I-Gate yamaguchi-City MINAMI Map
Symbol ED1YAM 1778169272 R3 Cantabria 145.675 Mhz Subtono 0 Map
Symbol CRMCtr 1778169272 Capital Reg Medical Center Map
Symbol N2DML-2 1778169272 DigiPi http://digipi.org Map
Symbol MURMANSK 1778169272 GOROD GEROJ Map
Symbol KF8GLH-11 1778169272 147.560MHz Winlink Packet Gateway Map
Symbol WR5O-7 1778169272 WILSON AREA APRS DIGI. Map
Symbol OK1TOM-3 1778169272 t kv 7 18:00:01 CEST 2026, CPU temp=47.2'C, up 7 weeks, 5 days, 19 hours, 8 minutes, 9 users @ RSiGate, Scanning: 400.000MHz - 406.000MHz Map
Symbol SL3ZYE-1 1778169272 WX3in1Plus2.0 U=14.9V, FRO Solleftea Map
Symbol KF7DJC-11 1778169272 145.010MHz Winlink VARA FM Wide Gateway Map
Symbol OE5JFE-4 1778169272 Testing/B=100 Map
Symbol W6/NE-289 1778169272 SOTA https://on6zq.be/-/W6/NE-289 Map
Symbol KF7RSF-10 1778169272 144.970MHz Winlink Packet Gateway Map
Symbol VK2TRL 1778169272 VK2TRL EchoLink node 147.550/91.5 Hz tone. Map
Symbol DF8DL-11 1778169272 MeshCom GW Haltern/B=100 Map
Symbol DF8FS 1778169272 FIXED Map
Symbol KO4TDD-10 1778169272 Map
Symbol F1ZOS-2 1778169272 Relais RU3 430.075 MHz +1.6 MHz Map
Symbol VK2ADG-10 1778169272 IGATE, RX on RTL-SDR, http://digi.secs.net.au Map
Symbol BG0BBB-15 1778169272 460991(MFO) Map
Symbol DL6YEW-5 1778169272 #Werner/B=100 Map
Symbol VK3REB-1 1778169272 W2/ APRS Digi - Map
Symbol 9M2TEE-15 1778169272 LoRa APRS Map
Symbol KR4EOD-10 1778169272 Digipi HT iGate Map
Symbol N3XKU-7 1778169272 Map
Symbol EB7FBJ-19 1778169272 433 LORA TEST NODE Map
Symbol KO4QEG-B 1778169272 70cm Voice (D-Star) 446.55000MHz +0.0000MHz Map
Symbol LA6WW-1 1778169272 WX3in1Plus2.0, Hans hjemmeQTH Map
Symbol KF8GLH-2 1778169272 223.520MHz Winlink Packet Gateway Map
Symbol TI2CVJ-10 1778169272 EJ79xx/I transmit with APRSIS32 - Good DX Map
Symbol OE1KFR-1 1778169272 Map
Symbol SR2INO-1 1778169272 Lora Digi Map
Symbol StMarysMN 1778169272 St. Marys Duluth MN Map
Symbol VK3ZAZ-10 1778169272 Map
Symbol VE2CSL-4 1778169272 145.090 MHz Node Packet BPQ En test Map
Symbol TA3UKN-7 1778169272 433.475 QRV UFUK KIRAN 0 RH+ Map
Symbol SQ2CPA-1 1778169272 LoRa APRS TEST Map
Symbol KF8GLH-4 1778169272 441.050MHz Winlink Packet Gateway Map